sensor_id;sensor_type;location;lat;lon;timestamp;P1;durP1;ratioP1;P2;durP2;ratioP2
29384;SDS011;16367;48.736;9.218;2023-02-21T00:02:17;5.65;;;1.98;;
29384;SDS011;16367;48.736;9.218;2023-02-21T00:04:37;6.70;;;2.20;;
29384;SDS011;16367;48.736;9.218;2023-02-21T00:06:58;6.38;;;2.08;;
29384;SDS011;16367;48.736;9.218;2023-02-21T00:09:18;5.40;;;1.77;;
29384;SDS011;16367;48.736;9.218;2023-02-21T00:11:39;4.85;;;1.65;;
29384;SDS011;16367;48.736;9.218;2023-02-21T00:14:01;5.68;;;1.88;;
29384;SDS011;16367;48.736;9.218;2023-02-21T00:16:23;6.13;;;1.88;;
29384;SDS011;16367;48.736;9.218;2023-02-21T00:18:43;5.03;;;1.90;;
29384;SDS011;16367;48.736;9.218;2023-02-21T00:21:04;6.28;;;1.67;;
29384;SDS011;16367;48.736;9.218;2023-02-21T00:23:25;5.18;;;1.73;;
29384;SDS011;16367;48.736;9.218;2023-02-21T00:25:45;5.88;;;1.60;;
29384;SDS011;16367;48.736;9.218;2023-02-21T00:28:05;4.13;;;1.63;;
29384;SDS011;16367;48.736;9.218;2023-02-21T00:30:26;10.57;;;2.13;;
29384;SDS011;16367;48.736;9.218;2023-02-21T00:32:48;4.55;;;1.50;;
29384;SDS011;16367;48.736;9.218;2023-02-21T00:35:08;5.85;;;1.85;;
29384;SDS011;16367;48.736;9.218;2023-02-21T00:37:29;6.35;;;1.75;;
29384;SDS011;16367;48.736;9.218;2023-02-21T00:39:49;6.15;;;1.70;;
29384;SDS011;16367;48.736;9.218;2023-02-21T00:42:10;6.55;;;1.65;;
29384;SDS011;16367;48.736;9.218;2023-02-21T00:44:30;5.32;;;1.67;;
29384;SDS011;16367;48.736;9.218;2023-02-21T00:46:51;6.40;;;2.00;;
29384;SDS011;16367;48.736;9.218;2023-02-21T00:49:12;5.13;;;1.85;;
29384;SDS011;16367;48.736;9.218;2023-02-21T00:51:33;6.07;;;1.60;;
29384;SDS011;16367;48.736;9.218;2023-02-21T00:53:53;6.35;;;1.90;;
29384;SDS011;16367;48.736;9.218;2023-02-21T00:56:13;6.90;;;2.28;;
29384;SDS011;16367;48.736;9.218;2023-02-21T00:58:34;5.95;;;1.70;;
29384;SDS011;16367;48.736;9.218;2023-02-21T01:00:54;6.07;;;2.42;;
29384;SDS011;16367;48.736;9.218;2023-02-21T01:03:15;5.63;;;1.63;;
29384;SDS011;16367;48.736;9.218;2023-02-21T01:05:37;5.90;;;1.83;;
29384;SDS011;16367;48.736;9.218;2023-02-21T01:07:58;5.85;;;1.73;;
29384;SDS011;16367;48.736;9.218;2023-02-21T01:10:18;6.30;;;1.70;;
29384;SDS011;16367;48.736;9.218;2023-02-21T01:12:38;5.03;;;1.75;;
29384;SDS011;16367;48.736;9.218;2023-02-21T01:14:59;3.60;;;1.38;;
29384;SDS011;16367;48.736;9.218;2023-02-21T01:17:19;5.22;;;1.77;;
29384;SDS011;16367;48.736;9.218;2023-02-21T01:19:40;5.57;;;1.90;;
29384;SDS011;16367;48.736;9.218;2023-02-21T01:22:03;5.40;;;2.10;;
29384;SDS011;16367;48.736;9.218;2023-02-21T01:24:23;5.63;;;1.60;;
29384;SDS011;16367;48.736;9.218;2023-02-21T01:26:44;4.63;;;1.73;;
29384;SDS011;16367;48.736;9.218;2023-02-21T01:29:04;6.95;;;1.88;;
29384;SDS011;16367;48.736;9.218;2023-02-21T01:31:24;4.97;;;1.77;;
29384;SDS011;16367;48.736;9.218;2023-02-21T01:33:45;4.85;;;1.60;;
29384;SDS011;16367;48.736;9.218;2023-02-21T01:36:06;5.03;;;1.52;;
29384;SDS011;16367;48.736;9.218;2023-02-21T01:38:28;4.40;;;1.67;;
29384;SDS011;16367;48.736;9.218;2023-02-21T01:40:52;4.15;;;1.60;;
29384;SDS011;16367;48.736;9.218;2023-02-21T01:43:13;4.90;;;1.55;;
29384;SDS011;16367;48.736;9.218;2023-02-21T01:45:42;5.88;;;1.70;;
29384;SDS011;16367;48.736;9.218;2023-02-21T01:48:06;3.55;;;1.58;;
29384;SDS011;16367;48.736;9.218;2023-02-21T01:50:28;5.25;;;1.70;;
29384;SDS011;16367;48.736;9.218;2023-02-21T01:52:50;5.13;;;1.63;;
29384;SDS011;16367;48.736;9.218;2023-02-21T01:55:12;4.30;;;1.58;;
29384;SDS011;16367;48.736;9.218;2023-02-21T01:57:33;4.72;;;1.40;;
29384;SDS011;16367;48.736;9.218;2023-02-21T01:59:55;4.75;;;1.60;;
29384;SDS011;16367;48.736;9.218;2023-02-21T02:02:17;5.30;;;1.27;;
29384;SDS011;16367;48.736;9.218;2023-02-21T02:04:42;4.25;;;1.40;;
29384;SDS011;16367;48.736;9.218;2023-02-21T02:07:05;5.00;;;1.30;;
29384;SDS011;16367;48.736;9.218;2023-02-21T02:09:26;4.47;;;1.33;;
29384;SDS011;16367;48.736;9.218;2023-02-21T02:11:52;3.40;;;1.20;;
29384;SDS011;16367;48.736;9.218;2023-02-21T02:14:46;4.32;;;1.40;;
29384;SDS011;16367;48.736;9.218;2023-02-21T02:17:01;4.45;;;1.50;;
29384;SDS011;16367;48.736;9.218;2023-02-21T02:19:20;5.00;;;1.52;;
29384;SDS011;16367;48.736;9.218;2023-02-21T02:21:56;5.93;;;1.60;;
29384;SDS011;16367;48.736;9.218;2023-02-21T02:32:36;4.15;;;1.52;;
29384;SDS011;16367;48.736;9.218;2023-02-21T02:34:54;5.68;;;1.48;;
29384;SDS011;16367;48.736;9.218;2023-02-21T02:37:04;4.72;;;1.55;;
29384;SDS011;16367;48.736;9.218;2023-02-21T02:39:16;4.68;;;1.40;;
29384;SDS011;16367;48.736;9.218;2023-02-21T02:41:26;6.40;;;1.42;;
29384;SDS011;16367;48.736;9.218;2023-02-21T02:43:41;5.15;;;1.70;;
29384;SDS011;16367;48.736;9.218;2023-02-21T02:45:50;4.65;;;1.50;;
29384;SDS011;16367;48.736;9.218;2023-02-21T02:47:58;3.65;;;1.60;;
29384;SDS011;16367;48.736;9.218;2023-02-21T02:50:09;3.88;;;1.30;;
29384;SDS011;16367;48.736;9.218;2023-02-21T02:52:13;3.78;;;1.20;;
29384;SDS011;16367;48.736;9.218;2023-02-21T02:54:15;4.43;;;1.58;;
29384;SDS011;16367;48.736;9.218;2023-02-21T02:56:18;5.63;;;1.38;;
29384;SDS011;16367;48.736;9.218;2023-02-21T02:58:24;4.22;;;1.50;;
29384;SDS011;16367;48.736;9.218;2023-02-21T03:00:29;4.35;;;1.33;;
29384;SDS011;16367;48.736;9.218;2023-02-21T03:02:36;4.05;;;1.48;;
29384;SDS011;16367;48.736;9.218;2023-02-21T03:04:57;5.43;;;1.60;;
29384;SDS011;16367;48.736;9.218;2023-02-21T03:07:31;4.28;;;1.58;;
29384;SDS011;16367;48.736;9.218;2023-02-21T03:09:43;4.72;;;1.30;;
29384;SDS011;16367;48.736;9.218;2023-02-21T03:11:58;3.55;;;1.23;;
29384;SDS011;16367;48.736;9.218;2023-02-21T03:14:08;5.10;;;1.60;;
29384;SDS011;16367;48.736;9.218;2023-02-21T03:16:19;4.25;;;1.45;;
29384;SDS011;16367;48.736;9.218;2023-02-21T03:18:26;5.97;;;1.67;;
29384;SDS011;16367;48.736;9.218;2023-02-21T03:20:37;3.80;;;1.10;;
29384;SDS011;16367;48.736;9.218;2023-02-21T03:22:42;5.75;;;1.50;;
29384;SDS011;16367;48.736;9.218;2023-02-21T03:24:47;5.45;;;1.95;;
29384;SDS011;16367;48.736;9.218;2023-02-21T03:26:52;3.58;;;1.38;;
29384;SDS011;16367;48.736;9.218;2023-02-21T03:31:00;3.67;;;1.30;;
29384;SDS011;16367;48.736;9.218;2023-02-21T03:33:05;6.25;;;1.50;;
29384;SDS011;16367;48.736;9.218;2023-02-21T03:35:08;5.43;;;1.40;;
29384;SDS011;16367;48.736;9.218;2023-02-21T03:37:18;4.60;;;1.38;;
29384;SDS011;16367;48.736;9.218;2023-02-21T03:39:29;4.72;;;1.33;;
29384;SDS011;16367;48.736;9.218;2023-02-21T03:41:32;3.60;;;1.40;;
29384;SDS011;16367;48.736;9.218;2023-02-21T03:43:35;6.43;;;2.03;;
29384;SDS011;16367;48.736;9.218;2023-02-21T03:45:37;4.93;;;1.50;;
29384;SDS011;16367;48.736;9.218;2023-02-21T03:47:40;5.38;;;1.50;;
29384;SDS011;16367;48.736;9.218;2023-02-21T03:49:43;5.25;;;1.30;;
29384;SDS011;16367;48.736;9.218;2023-02-21T03:51:45;3.63;;;1.20;;
29384;SDS011;16367;48.736;9.218;2023-02-21T03:53:50;4.43;;;1.48;;
29384;SDS011;16367;48.736;9.218;2023-02-21T03:55:52;4.88;;;1.23;;
29384;SDS011;16367;48.736;9.218;2023-02-21T03:57:55;3.70;;;1.38;;
29384;SDS011;16367;48.736;9.218;2023-02-21T03:59:58;4.32;;;1.17;;
29384;SDS011;16367;48.736;9.218;2023-02-21T04:02:00;5.32;;;1.50;;
29384;SDS011;16367;48.736;9.218;2023-02-21T04:04:03;5.50;;;1.38;;
29384;SDS011;16367;48.736;9.218;2023-02-21T04:06:06;3.15;;;1.02;;
29384;SDS011;16367;48.736;9.218;2023-02-21T04:08:09;3.33;;;1.33;;
29384;SDS011;16367;48.736;9.218;2023-02-21T04:10:13;4.18;;;1.45;;
29384;SDS011;16367;48.736;9.218;2023-02-21T04:12:16;4.80;;;1.27;;
29384;SDS011;16367;48.736;9.218;2023-02-21T04:14:18;4.50;;;1.45;;
29384;SDS011;16367;48.736;9.218;2023-02-21T04:16:21;4.82;;;1.20;;
29384;SDS011;16367;48.736;9.218;2023-02-21T04:18:24;4.20;;;1.42;;
29384;SDS011;16367;48.736;9.218;2023-02-21T04:20:27;5.15;;;1.45;;
29384;SDS011;16367;48.736;9.218;2023-02-21T04:22:30;4.13;;;1.20;;
29384;SDS011;16367;48.736;9.218;2023-02-21T04:24:33;5.55;;;1.80;;
29384;SDS011;16367;48.736;9.218;2023-02-21T04:26:37;4.45;;;1.48;;
29384;SDS011;16367;48.736;9.218;2023-02-21T04:28:40;3.83;;;1.17;;
29384;SDS011;16367;48.736;9.218;2023-02-21T04:30:42;5.10;;;1.40;;
29384;SDS011;16367;48.736;9.218;2023-02-21T04:32:45;4.32;;;1.42;;
29384;SDS011;16367;48.736;9.218;2023-02-21T04:34:48;4.25;;;1.42;;
29384;SDS011;16367;48.736;9.218;2023-02-21T04:36:50;4.50;;;1.55;;
29384;SDS011;16367;48.736;9.218;2023-02-21T04:38:53;4.78;;;1.20;;
29384;SDS011;16367;48.736;9.218;2023-02-21T04:40:56;5.22;;;1.50;;
29384;SDS011;16367;48.736;9.218;2023-02-21T04:43:00;4.80;;;1.50;;
29384;SDS011;16367;48.736;9.218;2023-02-21T04:45:03;4.72;;;1.40;;
29384;SDS011;16367;48.736;9.218;2023-02-21T04:47:06;5.38;;;1.60;;
29384;SDS011;16367;48.736;9.218;2023-02-21T04:49:08;5.18;;;1.60;;
29384;SDS011;16367;48.736;9.218;2023-02-21T04:51:13;3.55;;;1.42;;
29384;SDS011;16367;48.736;9.218;2023-02-21T04:53:19;3.90;;;1.52;;
29384;SDS011;16367;48.736;9.218;2023-02-21T04:55:21;4.70;;;1.33;;
29384;SDS011;16367;48.736;9.218;2023-02-21T04:57:24;6.25;;;1.48;;
29384;SDS011;16367;48.736;9.218;2023-02-21T04:59:28;4.22;;;1.40;;
29384;SDS011;16367;48.736;9.218;2023-02-21T05:01:33;4.22;;;1.50;;
29384;SDS011;16367;48.736;9.218;2023-02-21T05:03:36;4.03;;;1.38;;
29384;SDS011;16367;48.736;9.218;2023-02-21T05:05:39;4.22;;;1.38;;
29384;SDS011;16367;48.736;9.218;2023-02-21T05:07:41;4.38;;;1.20;;
29384;SDS011;16367;48.736;9.218;2023-02-21T05:09:44;3.90;;;1.48;;
29384;SDS011;16367;48.736;9.218;2023-02-21T05:11:47;4.60;;;1.13;;
29384;SDS011;16367;48.736;9.218;2023-02-21T05:13:50;3.50;;;1.20;;
29384;SDS011;16367;48.736;9.218;2023-02-21T05:15:54;6.50;;;1.85;;
29384;SDS011;16367;48.736;9.218;2023-02-21T05:17:57;3.53;;;1.23;;
29384;SDS011;16367;48.736;9.218;2023-02-21T05:19:59;5.13;;;1.90;;
29384;SDS011;16367;48.736;9.218;2023-02-21T05:22:02;4.45;;;1.60;;
29384;SDS011;16367;48.736;9.218;2023-02-21T05:24:07;4.85;;;1.70;;
29384;SDS011;16367;48.736;9.218;2023-02-21T05:26:11;6.03;;;1.95;;
29384;SDS011;16367;48.736;9.218;2023-02-21T05:28:14;5.38;;;1.90;;
29384;SDS011;16367;48.736;9.218;2023-02-21T05:30:18;5.32;;;1.83;;
29384;SDS011;16367;48.736;9.218;2023-02-21T05:32:24;4.55;;;1.65;;
29384;SDS011;16367;48.736;9.218;2023-02-21T05:34:29;7.50;;;2.30;;
29384;SDS011;16367;48.736;9.218;2023-02-21T05:36:32;5.25;;;1.88;;
29384;SDS011;16367;48.736;9.218;2023-02-21T05:38:42;4.65;;;1.90;;
29384;SDS011;16367;48.736;9.218;2023-02-21T05:40:45;5.20;;;1.88;;
29384;SDS011;16367;48.736;9.218;2023-02-21T05:42:49;5.38;;;1.77;;
29384;SDS011;16367;48.736;9.218;2023-02-21T05:44:51;5.82;;;1.85;;
29384;SDS011;16367;48.736;9.218;2023-02-21T05:46:54;6.40;;;1.90;;
29384;SDS011;16367;48.736;9.218;2023-02-21T05:48:59;4.40;;;1.70;;
29384;SDS011;16367;48.736;9.218;2023-02-21T05:51:02;5.03;;;2.20;;
29384;SDS011;16367;48.736;9.218;2023-02-21T05:53:05;6.53;;;2.38;;
29384;SDS011;16367;48.736;9.218;2023-02-21T05:55:10;5.93;;;2.17;;
29384;SDS011;16367;48.736;9.218;2023-02-21T05:57:13;7.05;;;2.05;;
29384;SDS011;16367;48.736;9.218;2023-02-21T05:59:16;5.18;;;1.70;;
29384;SDS011;16367;48.736;9.218;2023-02-21T06:01:20;5.47;;;2.00;;
29384;SDS011;16367;48.736;9.218;2023-02-21T06:03:23;4.65;;;1.88;;
29384;SDS011;16367;48.736;9.218;2023-02-21T06:05:27;6.72;;;2.25;;
29384;SDS011;16367;48.736;9.218;2023-02-21T06:07:29;5.22;;;2.17;;
29384;SDS011;16367;48.736;9.218;2023-02-21T06:09:32;8.23;;;2.70;;
29384;SDS011;16367;48.736;9.218;2023-02-21T06:11:35;7.65;;;2.67;;
29384;SDS011;16367;48.736;9.218;2023-02-21T06:13:41;8.20;;;2.03;;
29384;SDS011;16367;48.736;9.218;2023-02-21T06:15:43;10.30;;;1.92;;
29384;SDS011;16367;48.736;9.218;2023-02-21T06:17:46;6.70;;;2.70;;
29384;SDS011;16367;48.736;9.218;2023-02-21T06:19:49;6.90;;;1.80;;
29384;SDS011;16367;48.736;9.218;2023-02-21T06:21:53;5.13;;;2.00;;
29384;SDS011;16367;48.736;9.218;2023-02-21T06:23:55;6.25;;;2.35;;
29384;SDS011;16367;48.736;9.218;2023-02-21T06:25:58;5.68;;;2.20;;
29384;SDS011;16367;48.736;9.218;2023-02-21T06:28:01;4.72;;;2.20;;
29384;SDS011;16367;48.736;9.218;2023-02-21T06:30:04;5.65;;;2.30;;
29384;SDS011;16367;48.736;9.218;2023-02-21T06:32:08;5.47;;;2.20;;
29384;SDS011;16367;48.736;9.218;2023-02-21T06:34:10;6.72;;;2.30;;
29384;SDS011;16367;48.736;9.218;2023-02-21T06:36:14;6.50;;;2.00;;
29384;SDS011;16367;48.736;9.218;2023-02-21T06:38:20;6.50;;;2.00;;
29384;SDS011;16367;48.736;9.218;2023-02-21T06:40:23;5.90;;;1.90;;
29384;SDS011;16367;48.736;9.218;2023-02-21T06:42:25;5.72;;;2.13;;
29384;SDS011;16367;48.736;9.218;2023-02-21T06:44:30;6.22;;;2.05;;
29384;SDS011;16367;48.736;9.218;2023-02-21T06:46:32;4.90;;;1.60;;
29384;SDS011;16367;48.736;9.218;2023-02-21T06:48:37;7.68;;;2.17;;
29384;SDS011;16367;48.736;9.218;2023-02-21T06:50:39;5.90;;;2.17;;
29384;SDS011;16367;48.736;9.218;2023-02-21T06:52:42;4.63;;;1.77;;
29384;SDS011;16367;48.736;9.218;2023-02-21T06:54:46;8.20;;;1.80;;
29384;SDS011;16367;48.736;9.218;2023-02-21T06:56:51;5.75;;;2.33;;
29384;SDS011;16367;48.736;9.218;2023-02-21T06:58:53;6.45;;;2.33;;
29384;SDS011;16367;48.736;9.218;2023-02-21T07:00:56;6.63;;;2.10;;
29384;SDS011;16367;48.736;9.218;2023-02-21T07:02:59;4.40;;;1.80;;
29384;SDS011;16367;48.736;9.218;2023-02-21T07:05:01;6.63;;;2.08;;
29384;SDS011;16367;48.736;9.218;2023-02-21T07:07:04;6.78;;;2.22;;
29384;SDS011;16367;48.736;9.218;2023-02-21T07:09:07;7.50;;;2.80;;
29384;SDS011;16367;48.736;9.218;2023-02-21T07:11:11;6.70;;;2.15;;
29384;SDS011;16367;48.736;9.218;2023-02-21T07:13:15;7.13;;;2.22;;
29384;SDS011;16367;48.736;9.218;2023-02-21T07:15:17;6.43;;;2.35;;
29384;SDS011;16367;48.736;9.218;2023-02-21T07:17:20;5.78;;;2.22;;
29384;SDS011;16367;48.736;9.218;2023-02-21T07:19:23;9.88;;;2.10;;
29384;SDS011;16367;48.736;9.218;2023-02-21T07:21:25;6.35;;;2.38;;
29384;SDS011;16367;48.736;9.218;2023-02-21T07:23:28;6.00;;;2.30;;
29384;SDS011;16367;48.736;9.218;2023-02-21T07:25:31;7.63;;;2.13;;
29384;SDS011;16367;48.736;9.218;2023-02-21T07:27:35;5.63;;;1.92;;
29384;SDS011;16367;48.736;9.218;2023-02-21T07:29:38;6.85;;;2.25;;
29384;SDS011;16367;48.736;9.218;2023-02-21T07:31:40;6.28;;;2.40;;
29384;SDS011;16367;48.736;9.218;2023-02-21T07:33:43;6.32;;;2.33;;
29384;SDS011;16367;48.736;9.218;2023-02-21T07:35:46;5.97;;;2.40;;
29384;SDS011;16367;48.736;9.218;2023-02-21T07:37:49;7.25;;;2.08;;
29384;SDS011;16367;48.736;9.218;2023-02-21T07:39:52;8.05;;;2.28;;
29384;SDS011;16367;48.736;9.218;2023-02-21T07:41:55;8.50;;;2.80;;
29384;SDS011;16367;48.736;9.218;2023-02-21T07:43:59;7.72;;;2.70;;
29384;SDS011;16367;48.736;9.218;2023-02-21T07:46:01;8.05;;;2.97;;
29384;SDS011;16367;48.736;9.218;2023-02-21T07:48:04;6.30;;;2.50;;
29384;SDS011;16367;48.736;9.218;2023-02-21T07:50:07;8.40;;;2.53;;
29384;SDS011;16367;48.736;9.218;2023-02-21T07:52:10;6.75;;;2.83;;
29384;SDS011;16367;48.736;9.218;2023-02-21T07:54:14;6.95;;;2.78;;
29384;SDS011;16367;48.736;9.218;2023-02-21T07:56:16;5.78;;;2.30;;
29384;SDS011;16367;48.736;9.218;2023-02-21T07:58:19;5.07;;;2.53;;
29384;SDS011;16367;48.736;9.218;2023-02-21T08:00:23;7.13;;;2.38;;
29384;SDS011;16367;48.736;9.218;2023-02-21T08:02:26;6.38;;;2.47;;
29384;SDS011;16367;48.736;9.218;2023-02-21T08:04:29;7.75;;;3.05;;
29384;SDS011;16367;48.736;9.218;2023-02-21T08:06:32;11.82;;;3.00;;
29384;SDS011;16367;48.736;9.218;2023-02-21T08:08:36;5.55;;;2.20;;
29384;SDS011;16367;48.736;9.218;2023-02-21T08:10:38;7.70;;;2.65;;
29384;SDS011;16367;48.736;9.218;2023-02-21T08:12:41;5.65;;;2.38;;
29384;SDS011;16367;48.736;9.218;2023-02-21T08:14:44;6.45;;;2.17;;
29384;SDS011;16367;48.736;9.218;2023-02-21T08:16:48;10.35;;;3.03;;
29384;SDS011;16367;48.736;9.218;2023-02-21T08:18:50;8.13;;;2.90;;
29384;SDS011;16367;48.736;9.218;2023-02-21T08:20:53;13.40;;;7.70;;
29384;SDS011;16367;48.736;9.218;2023-02-21T08:22:57;10.43;;;6.47;;
29384;SDS011;16367;48.736;9.218;2023-02-21T08:25:00;9.00;;;4.88;;
29384;SDS011;16367;48.736;9.218;2023-02-21T08:27:03;11.82;;;5.85;;
29384;SDS011;16367;48.736;9.218;2023-02-21T08:29:05;7.60;;;3.25;;
29384;SDS011;16367;48.736;9.218;2023-02-21T08:31:08;6.70;;;3.53;;
29384;SDS011;16367;48.736;9.218;2023-02-21T08:33:13;12.25;;;5.78;;
29384;SDS011;16367;48.736;9.218;2023-02-21T08:35:16;11.02;;;4.47;;
29384;SDS011;16367;48.736;9.218;2023-02-21T08:37:20;9.20;;;5.25;;
29384;SDS011;16367;48.736;9.218;2023-02-21T08:39:23;10.52;;;6.85;;
29384;SDS011;16367;48.736;9.218;2023-02-21T08:41:33;9.10;;;4.35;;
29384;SDS011;16367;48.736;9.218;2023-02-21T08:43:36;8.18;;;4.32;;
29384;SDS011;16367;48.736;9.218;2023-02-21T08:45:39;8.27;;;3.88;;
29384;SDS011;16367;48.736;9.218;2023-02-21T08:47:42;7.13;;;3.30;;
29384;SDS011;16367;48.736;9.218;2023-02-21T08:49:46;9.32;;;5.10;;
29384;SDS011;16367;48.736;9.218;2023-02-21T08:51:50;6.97;;;2.90;;
29384;SDS011;16367;48.736;9.218;2023-02-21T08:53:52;7.25;;;3.42;;
29384;SDS011;16367;48.736;9.218;2023-02-21T08:55:55;8.23;;;3.97;;
29384;SDS011;16367;48.736;9.218;2023-02-21T08:57:58;12.90;;;7.07;;
29384;SDS011;16367;48.736;9.218;2023-02-21T09:00:01;10.02;;;6.88;;
29384;SDS011;16367;48.736;9.218;2023-02-21T09:02:09;6.10;;;2.95;;
29384;SDS011;16367;48.736;9.218;2023-02-21T09:04:17;7.95;;;2.97;;
29384;SDS011;16367;48.736;9.218;2023-02-21T09:06:21;8.15;;;3.00;;
29384;SDS011;16367;48.736;9.218;2023-02-21T09:08:24;6.85;;;3.10;;
29384;SDS011;16367;48.736;9.218;2023-02-21T09:10:29;9.07;;;3.03;;
29384;SDS011;16367;48.736;9.218;2023-02-21T09:12:34;9.52;;;2.83;;
29384;SDS011;16367;48.736;9.218;2023-02-21T09:14:38;7.57;;;3.28;;
29384;SDS011;16367;48.736;9.218;2023-02-21T09:16:42;7.88;;;3.15;;
29384;SDS011;16367;48.736;9.218;2023-02-21T09:18:54;12.50;;;3.55;;
29384;SDS011;16367;48.736;9.218;2023-02-21T09:20:59;7.68;;;3.15;;
29384;SDS011;16367;48.736;9.218;2023-02-21T09:23:03;7.60;;;3.13;;
29384;SDS011;16367;48.736;9.218;2023-02-21T09:25:06;10.18;;;3.50;;
29384;SDS011;16367;48.736;9.218;2023-02-21T09:27:13;7.85;;;3.15;;
29384;SDS011;16367;48.736;9.218;2023-02-21T09:29:17;6.30;;;2.75;;
29384;SDS011;16367;48.736;9.218;2023-02-21T09:31:20;7.72;;;2.75;;
29384;SDS011;16367;48.736;9.218;2023-02-21T09:33:23;8.25;;;3.03;;
29384;SDS011;16367;48.736;9.218;2023-02-21T09:35:25;6.80;;;2.90;;
29384;SDS011;16367;48.736;9.218;2023-02-21T09:37:31;7.05;;;3.20;;
29384;SDS011;16367;48.736;9.218;2023-02-21T09:39:36;6.80;;;3.40;;
29384;SDS011;16367;48.736;9.218;2023-02-21T09:41:40;7.18;;;3.00;;
29384;SDS011;16367;48.736;9.218;2023-02-21T09:43:45;9.40;;;3.22;;
29384;SDS011;16367;48.736;9.218;2023-02-21T09:45:50;8.18;;;3.10;;
29384;SDS011;16367;48.736;9.218;2023-02-21T09:47:55;7.63;;;3.50;;
29384;SDS011;16367;48.736;9.218;2023-02-21T09:50:03;7.72;;;2.97;;
29384;SDS011;16367;48.736;9.218;2023-02-21T09:52:11;6.63;;;3.00;;
29384;SDS011;16367;48.736;9.218;2023-02-21T09:54:25;7.38;;;2.92;;
29384;SDS011;16367;48.736;9.218;2023-02-21T09:56:33;7.60;;;2.67;;
29384;SDS011;16367;48.736;9.218;2023-02-21T09:58:42;8.07;;;2.53;;
29384;SDS011;16367;48.736;9.218;2023-02-21T10:00:45;6.53;;;2.40;;
29384;SDS011;16367;48.736;9.218;2023-02-21T10:02:51;8.55;;;2.90;;
29384;SDS011;16367;48.736;9.218;2023-02-21T10:05:02;6.68;;;2.75;;
29384;SDS011;16367;48.736;9.218;2023-02-21T10:07:15;6.05;;;2.65;;
29384;SDS011;16367;48.736;9.218;2023-02-21T10:09:24;6.93;;;2.33;;
29384;SDS011;16367;48.736;9.218;2023-02-21T10:11:42;7.70;;;2.58;;
29384;SDS011;16367;48.736;9.218;2023-02-21T10:13:55;7.30;;;2.80;;
29384;SDS011;16367;48.736;9.218;2023-02-21T10:16:07;6.40;;;2.60;;
29384;SDS011;16367;48.736;9.218;2023-02-21T10:18:18;6.50;;;2.72;;
29384;SDS011;16367;48.736;9.218;2023-02-21T10:20:31;5.97;;;2.50;;
29384;SDS011;16367;48.736;9.218;2023-02-21T10:22:37;8.82;;;2.92;;
29384;SDS011;16367;48.736;9.218;2023-02-21T10:24:42;8.02;;;2.67;;
29384;SDS011;16367;48.736;9.218;2023-02-21T10:26:47;7.60;;;2.83;;
29384;SDS011;16367;48.736;9.218;2023-02-21T10:28:55;8.02;;;2.85;;
29384;SDS011;16367;48.736;9.218;2023-02-21T10:30:59;6.88;;;2.80;;
29384;SDS011;16367;48.736;9.218;2023-02-21T10:33:04;6.35;;;2.65;;
29384;SDS011;16367;48.736;9.218;2023-02-21T10:35:07;7.45;;;3.03;;
29384;SDS011;16367;48.736;9.218;2023-02-21T10:37:23;5.60;;;3.08;;
29384;SDS011;16367;48.736;9.218;2023-02-21T10:39:35;6.93;;;3.10;;
29384;SDS011;16367;48.736;9.218;2023-02-21T10:41:44;9.10;;;2.97;;
29384;SDS011;16367;48.736;9.218;2023-02-21T10:43:48;5.43;;;2.60;;
29384;SDS011;16367;48.736;9.218;2023-02-21T10:45:56;6.80;;;2.50;;
29384;SDS011;16367;48.736;9.218;2023-02-21T10:48:02;5.70;;;2.45;;
29384;SDS011;16367;48.736;9.218;2023-02-21T10:50:07;9.00;;;2.60;;
29384;SDS011;16367;48.736;9.218;2023-02-21T10:52:13;6.15;;;2.10;;
29384;SDS011;16367;48.736;9.218;2023-02-21T10:54:18;6.15;;;2.60;;
29384;SDS011;16367;48.736;9.218;2023-02-21T10:56:26;5.88;;;2.33;;
29384;SDS011;16367;48.736;9.218;2023-02-21T10:58:29;5.72;;;2.53;;
29384;SDS011;16367;48.736;9.218;2023-02-21T11:00:34;6.35;;;2.50;;
29384;SDS011;16367;48.736;9.218;2023-02-21T11:02:38;6.93;;;2.50;;
29384;SDS011;16367;48.736;9.218;2023-02-21T11:04:45;9.68;;;2.40;;
29384;SDS011;16367;48.736;9.218;2023-02-21T11:06:48;5.93;;;2.58;;
29384;SDS011;16367;48.736;9.218;2023-02-21T11:08:54;8.98;;;2.72;;
29384;SDS011;16367;48.736;9.218;2023-02-21T11:10:58;5.00;;;2.15;;
29384;SDS011;16367;48.736;9.218;2023-02-21T11:13:05;7.10;;;2.65;;
29384;SDS011;16367;48.736;9.218;2023-02-21T11:15:16;6.03;;;2.45;;
29384;SDS011;16367;48.736;9.218;2023-02-21T11:17:21;5.63;;;2.42;;
29384;SDS011;16367;48.736;9.218;2023-02-21T11:19:25;7.85;;;3.00;;
29384;SDS011;16367;48.736;9.218;2023-02-21T11:21:27;9.80;;;2.92;;
29384;SDS011;16367;48.736;9.218;2023-02-21T11:23:30;7.60;;;2.80;;
29384;SDS011;16367;48.736;9.218;2023-02-21T11:25:37;7.88;;;2.45;;
29384;SDS011;16367;48.736;9.218;2023-02-21T11:27:41;6.47;;;2.40;;
29384;SDS011;16367;48.736;9.218;2023-02-21T11:29:47;7.00;;;2.33;;
29384;SDS011;16367;48.736;9.218;2023-02-21T11:31:51;7.88;;;2.47;;
29384;SDS011;16367;48.736;9.218;2023-02-21T11:33:56;6.10;;;2.40;;
29384;SDS011;16367;48.736;9.218;2023-02-21T11:36:08;7.18;;;2.28;;
29384;SDS011;16367;48.736;9.218;2023-02-21T11:38:29;4.88;;;2.13;;
29384;SDS011;16367;48.736;9.218;2023-02-21T11:40:39;4.80;;;1.83;;
29384;SDS011;16367;48.736;9.218;2023-02-21T11:42:43;5.65;;;2.63;;
29384;SDS011;16367;48.736;9.218;2023-02-21T11:44:46;6.38;;;2.40;;
29384;SDS011;16367;48.736;9.218;2023-02-21T11:46:54;6.32;;;2.15;;
29384;SDS011;16367;48.736;9.218;2023-02-21T11:49:07;6.28;;;2.10;;
29384;SDS011;16367;48.736;9.218;2023-02-21T11:51:29;4.50;;;1.80;;
29384;SDS011;16367;48.736;9.218;2023-02-21T11:53:38;6.00;;;2.20;;
29384;SDS011;16367;48.736;9.218;2023-02-21T11:55:47;6.20;;;2.00;;
29384;SDS011;16367;48.736;9.218;2023-02-21T11:58:01;6.03;;;1.98;;
29384;SDS011;16367;48.736;9.218;2023-02-21T12:00:16;6.35;;;2.30;;
29384;SDS011;16367;48.736;9.218;2023-02-21T12:02:36;6.05;;;1.77;;
29384;SDS011;16367;48.736;9.218;2023-02-21T12:05:04;6.47;;;1.83;;
29384;SDS011;16367;48.736;9.218;2023-02-21T12:07:16;5.68;;;1.92;;
29384;SDS011;16367;48.736;9.218;2023-02-21T12:09:27;4.95;;;1.77;;
29384;SDS011;16367;48.736;9.218;2023-02-21T12:11:40;4.25;;;1.58;;
29384;SDS011;16367;48.736;9.218;2023-02-21T12:14:06;5.50;;;1.70;;
29384;SDS011;16367;48.736;9.218;2023-02-21T12:16:18;4.20;;;1.70;;
29384;SDS011;16367;48.736;9.218;2023-02-21T12:18:31;4.95;;;1.75;;
29384;SDS011;16367;48.736;9.218;2023-02-21T12:20:49;5.18;;;1.80;;
29384;SDS011;16367;48.736;9.218;2023-02-21T12:23:07;4.40;;;1.40;;
29384;SDS011;16367;48.736;9.218;2023-02-21T12:25:19;4.18;;;1.40;;
29384;SDS011;16367;48.736;9.218;2023-02-21T12:27:29;3.83;;;1.40;;
29384;SDS011;16367;48.736;9.218;2023-02-21T12:29:43;4.88;;;1.35;;
29384;SDS011;16367;48.736;9.218;2023-02-21T12:32:03;6.22;;;2.28;;
29384;SDS011;16367;48.736;9.218;2023-02-21T12:34:25;5.05;;;1.50;;
29384;SDS011;16367;48.736;9.218;2023-02-21T12:36:45;4.10;;;1.35;;
29384;SDS011;16367;48.736;9.218;2023-02-21T12:39:04;4.88;;;1.55;;
29384;SDS011;16367;48.736;9.218;2023-02-21T12:43:31;3.83;;;1.42;;
29384;SDS011;16367;48.736;9.218;2023-02-21T12:45:48;3.72;;;1.40;;
29384;SDS011;16367;48.736;9.218;2023-02-21T12:47:58;6.78;;;1.65;;
29384;SDS011;16367;48.736;9.218;2023-02-21T12:50:08;5.43;;;1.52;;
29384;SDS011;16367;48.736;9.218;2023-02-21T12:52:20;4.43;;;1.50;;
29384;SDS011;16367;48.736;9.218;2023-02-21T12:54:32;3.90;;;1.38;;
29384;SDS011;16367;48.736;9.218;2023-02-21T12:56:42;6.63;;;2.05;;
29384;SDS011;16367;48.736;9.218;2023-02-21T12:58:51;4.38;;;1.30;;
29384;SDS011;16367;48.736;9.218;2023-02-21T13:01:01;4.50;;;1.73;;
29384;SDS011;16367;48.736;9.218;2023-02-21T13:03:13;4.43;;;2.03;;
29384;SDS011;16367;48.736;9.218;2023-02-21T13:05:31;5.03;;;1.63;;
29384;SDS011;16367;48.736;9.218;2023-02-21T13:09:48;5.45;;;1.50;;
29384;SDS011;16367;48.736;9.218;2023-02-21T13:11:58;4.50;;;1.80;;